Terminal Aerodrome Forecast
Issued by NWS Twin Cities, MN

Home | Current Version | Previous Version | Text Only | Print | Product List | Glossary Off
Versions: 1 2 3 4 5 6 7 8 9 10 11 12 13 14 15 16 17 18 19 20 21

000
FTUS43 KMPX 272300
TAFSTC
TAF
KSTC 272332Z 2800/2824 15005KT P6SM OVC090
     FM280400 14006KT 4SM -SN OVC040
     FM280500 15008KT 1 1/2SM -SN SCT015 OVC035
      TEMPO 2805/2808 3/4SM -SN BKN015
     FM280800 13007KT 4SM -SN SCT015 OVC025
     FM281100 12006KT 6SM -SN OVC020
     FM281500 13006KT P6SM OVC015=

USA.gov is the U.S. government's official web portal to all federal, state and local government web resources and services.